Capt. Gary E. Moss — WDH7389 — position and weather

sailwx.info

Track history (hours):
 
Tides and Currents Weather Stations Pressure Air Temp Water Temp Dewpoint Dewpoint Depression Visibility Wind Speed Wind Dir Waves Ship Positions

Capt. Gary E. Moss

Owner: Blessey Enterprises, Inc., Harahan, LA. More information available from US FCC via Universal Licensing System and Coast Guard Vessel Documentation Center.

Last reported at 2018-Jan-04 23:13 UTC. Time now 2018-Jan-22 14:03 UTC.
Position N 29°50' W 091°58'.
Warning: this ship's position is 17 days out of date.

Length 26 m.

Type: Towing. MMSI: 367647650.

Date/timePositionNaut miles runAvg speedWind from/ knotsBaromVisibWave heightAir tempDewpointWater temp
2018-Jan-04 23:13N 29°50' W 091°58'1 4.5
2018-Jan-04 23:00N 29°50' W 091°60'2 4.5
2018-Jan-04 22:30N 29°49' W 092°02'2 4.6
2018-Jan-04 22:00N 29°48' W 092°04'2 4.7
2018-Jan-04 21:30N 29°47' W 092°07'2 4.9
2018-Jan-04 21:00N 29°47' W 092°10'2 3.7
2018-Jan-04 20:30N 29°47' W 092°12'2 4.4
2018-Jan-04 20:00N 29°48' W 092°14'2 4.7
2018-Jan-04 19:30N 29°49' W 092°17'2 4.6
2018-Jan-04 19:00N 29°50' W 092°19'39 4.0
2018-Jan-04 09:14N 29°56' W 093°03'1 4.0
2018-Jan-04 09:00N 29°56' W 093°04'2 3.8
2018-Jan-04 08:30N 29°56' W 093°06'2 3.9
2018-Jan-04 08:00N 29°56' W 093°08'2 3.7
2018-Jan-04 07:30N 29°57' W 093°10'2 4.1
2018-Jan-04 07:00N 29°58' W 093°12'2 4.1
2018-Jan-04 06:30N 29°60' W 093°13'2 3.7
2018-Jan-04 06:00N 30°02' W 093°14'2 3.8
2018-Jan-04 05:30N 30°03' W 093°16'2 4.0
2018-Jan-04 05:00N 30°05' W 093°17'1 2.4
2018-Jan-04 04:30N 30°05' W 093°18'1 2.0
2018-Jan-04 04:00N 30°06' W 093°19'0 0.0
2018-Jan-04 03:30N 30°06' W 093°19'0 0.0
2018-Jan-04 03:00N 30°06' W 093°19'0 0.1
2018-Jan-04 02:30N 30°06' W 093°19'0 0.2
2018-Jan-04 02:00N 30°06' W 093°19'0 0.0
2018-Jan-04 01:30N 30°06' W 093°19'0 0.2
2018-Jan-04 01:00N 30°06' W 093°19'1 2.6
2018-Jan-04 00:30N 30°05' W 093°20'0 0.3
2018-Jan-04 00:00N 30°05' W 093°20'0 0.0
2018-Jan-03 23:30N 30°05' W 093°20'0 0.0
2018-Jan-03 23:00N 30°05' W 093°20'0 0.2
2018-Jan-03 22:30N 30°05' W 093°20'1 2.7
2018-Jan-03 22:00N 30°04' W 093°21'0 0.0
2018-Jan-03 21:30N 30°04' W 093°21'0 0.0
2018-Jan-03 21:00N 30°04' W 093°21'0 0.0
2018-Jan-03 20:30N 30°04' W 093°21'0 0.0
2018-Jan-03 20:00N 30°04' W 093°21'0 0.0
2018-Jan-03 19:30N 30°04' W 093°21'0 0.0
2018-Jan-03 19:00N 30°04' W 093°21'0 0.0
2018-Jan-03 18:30N 30°04' W 093°21'0 0.0
2018-Jan-03 18:01N 30°04' W 093°21'2 3.0
2018-Jan-03 17:30N 30°05' W 093°20'0 0.0
2018-Jan-03 17:00N 30°05' W 093°20'0 0.0
2018-Jan-03 16:30N 30°05' W 093°20'0 0.0
2018-Jan-03 16:00N 30°05' W 093°20'0 0.0
2018-Jan-03 15:30N 30°05' W 093°20'0 0.0
2018-Jan-03 15:00N 30°05' W 093°20'0 0.0
2018-Jan-03 14:30N 30°05' W 093°20'0 0.0
2018-Jan-03 14:00N 30°05' W 093°20'0 0.0
2018-Jan-03 13:30N 30°05' W 093°20'0 0.0
2018-Jan-03 13:00N 30°05' W 093°20'0 0.0
2018-Jan-03 12:30N 30°05' W 093°20'0 0.0
2018-Jan-03 12:00N 30°05' W 093°20'0 0.0
2018-Jan-03 11:30N 30°05' W 093°20'0 0.0
2018-Jan-03 11:00N 30°05' W 093°20'0 0.0
2018-Jan-03 10:30N 30°05' W 093°20'0 0.0
2018-Jan-03 10:00N 30°05' W 093°20'0 0.0
2018-Jan-03 09:30N 30°05' W 093°20'0 0.0
2018-Jan-03 09:00N 30°05' W 093°20'0 0.0
2018-Jan-03 08:30N 30°05' W 093°20'0 0.0
2018-Jan-03 08:00N 30°05' W 093°20'0 0.0
2018-Jan-03 07:30N 30°05' W 093°20'0 0.0
2018-Jan-03 07:00N 30°05' W 093°20'0 0.0
2018-Jan-03 06:31N 30°05' W 093°20'0 0.0
2018-Jan-03 06:00N 30°05' W 093°20'0 0.0
2018-Jan-03 05:30N 30°05' W 093°20'0 0.0
2018-Jan-03 05:00N 30°05' W 093°20'0 0.0
2018-Jan-03 04:30N 30°05' W 093°20'0 0.0
2018-Jan-03 04:00N 30°05' W 093°20'0 0.0
2018-Jan-03 03:30N 30°05' W 093°20'0 0.0
2018-Jan-03 03:00N 30°05' W 093°20'0 0.0
2018-Jan-03 02:31N 30°05' W 093°20'0 0.0
2018-Jan-03 02:01N 30°05' W 093°20'0 0.0
2018-Jan-03 01:30N 30°05' W 093°20'0 0.0
2018-Jan-03 01:00N 30°05' W 093°20'0 0.0
2018-Jan-03 00:30N 30°05' W 093°20'0 0.0
2018-Jan-03 00:00N 30°05' W 093°20'0 0.0
2018-Jan-02 23:30N 30°05' W 093°20'0 0.0
2018-Jan-02 23:00N 30°05' W 093°20'0 0.0
2018-Jan-02 22:30N 30°05' W 093°20'0 0.0
2018-Jan-02 22:01N 30°05' W 093°20'0 0.0
2018-Jan-02 21:30N 30°05' W 093°20'0 0.0
2018-Jan-02 21:01N 30°05' W 093°20'0 0.0
2018-Jan-02 20:30N 30°05' W 093°20'0 0.0
2018-Jan-02 20:00N 30°05' W 093°20'0 0.0
2018-Jan-02 19:30N 30°05' W 093°20'0 0.0
2018-Jan-02 19:00N 30°05' W 093°20'0 0.0
2018-Jan-02 18:30N 30°05' W 093°20'0 0.0
2018-Jan-02 18:00N 30°05' W 093°20'0 0.0
2018-Jan-02 17:30N 30°05' W 093°20'0 0.0
2018-Jan-02 17:00N 30°05' W 093°20'0 0.0
2018-Jan-02 16:31N 30°05' W 093°20'0 0.0
2018-Jan-02 16:00N 30°05' W 093°20'0 0.0
2018-Jan-02 15:30N 30°05' W 093°20'0 0.0
2018-Jan-02 15:00N 30°05' W 093°20'0 0.0
2018-Jan-02 14:30N 30°05' W 093°20'0 0.0
2018-Jan-02 14:00N 30°05' W 093°20'0 0.0
2018-Jan-02 13:30N 30°05' W 093°20'0 0.0
2018-Jan-02 13:00N 30°05' W 093°20'0 0.0
2018-Jan-02 12:30N 30°05' W 093°20'0 0.0
2018-Jan-02 12:01N 30°05' W 093°20'0 0.0
2018-Jan-02 11:31N 30°05' W 093°20'0 0.0
2018-Jan-02 11:00N 30°05' W 093°20'0 0.0
2018-Jan-02 10:30N 30°05' W 093°20'0 0.0
2018-Jan-02 10:00N 30°05' W 093°20'0 0.0
2018-Jan-02 09:30N 30°05' W 093°20'0 0.0
2018-Jan-02 08:31N 30°05' W 093°20'0 0.0
2018-Jan-02 08:00N 30°05' W 093°20'0 0.0
2018-Jan-02 07:30N 30°05' W 093°20'0 0.0
2018-Jan-02 07:00N 30°05' W 093°20'0 0.0
2018-Jan-02 06:30N 30°05' W 093°20'0 0.0
2018-Jan-02 06:00N 30°05' W 093°20'0 0.0
2018-Jan-02 05:30N 30°05' W 093°20'0 0.0
2018-Jan-02 04:30N 30°05' W 093°20'0 0.0
2018-Jan-02 04:00N 30°05' W 093°20'0 0.0
2018-Jan-02 03:30N 30°05' W 093°20'0 0.0
2018-Jan-02 03:00N 30°05' W 093°20'0 0.0
2018-Jan-02 02:30N 30°05' W 093°20'0 0.0
2018-Jan-02 02:00N 30°05' W 093°20'0 0.0
2018-Jan-02 01:30N 30°05' W 093°20'0 0.0
2018-Jan-02 01:00N 30°05' W 093°20'0 0.0
2018-Jan-02 00:30N 30°05' W 093°20'0 0.0
2018-Jan-02 00:00N 30°05' W 093°20'0 0.0
2018-Jan-01 23:30N 30°05' W 093°20'0 0.1
2018-Jan-01 23:00N 30°05' W 093°20'0 0.0
2018-Jan-01 22:30N 30°05' W 093°20'0 0.6
2018-Jan-01 22:00N 30°05' W 093°20'2 3.2
2018-Jan-01 21:30N 30°07' W 093°20'2 3.2
2018-Jan-01 21:00N 30°08' W 093°19'0 0.5
2018-Jan-01 20:30N 30°08' W 093°19'0 0.0
2018-Jan-01 20:00N 30°08' W 093°19'0 0.0
2018-Jan-01 19:30N 30°08' W 093°19'0 0.0
2018-Jan-01 19:00N 30°08' W 093°19'0 0.0
2018-Jan-01 18:30N 30°08' W 093°19'0 0.0
2018-Jan-01 18:00N 30°08' W 093°19'0 0.0
2018-Jan-01 17:31N 30°08' W 093°19'0 0.0
2018-Jan-01 15:00N 30°08' W 093°19'0 0.0
2018-Jan-01 14:30N 30°08' W 093°19'0 0.0
2018-Jan-01 14:00N 30°08' W 093°19'0 0.0
2018-Jan-01 13:30N 30°08' W 093°19'0 0.0
2018-Jan-01 13:00N 30°08' W 093°19'0 0.0
2018-Jan-01 12:01N 30°08' W 093°19'0 0.0
2018-Jan-01 11:30N 30°08' W 093°19'0 0.0
2018-Jan-01 11:00N 30°08' W 093°19'0 0.0
2018-Jan-01 10:31N 30°08' W 093°19'0 0.0
2018-Jan-01 10:01N 30°08' W 093°19'0 0.0
2018-Jan-01 09:30N 30°08' W 093°19'0 0.0
2018-Jan-01 08:31N 30°08' W 093°19'0 0.0
2018-Jan-01 08:00N 30°08' W 093°19'0 0.0
2018-Jan-01 07:30N 30°08' W 093°19'0 0.0
2018-Jan-01 07:00N 30°08' W 093°19'0 0.0
2018-Jan-01 06:00N 30°08' W 093°19'0 0.0
2018-Jan-01 05:30N 30°08' W 093°19'0 0.0
2018-Jan-01 05:01N 30°08' W 093°19'0 0.0
2018-Jan-01 04:00N 30°08' W 093°19'0 0.0
2018-Jan-01 03:30N 30°08' W 093°19'0 0.0
2018-Jan-01 03:00N 30°08' W 093°19'0 0.0
2018-Jan-01 02:30N 30°08' W 093°19'0 0.0
2018-Jan-01 02:00N 30°08' W 093°19'0 0.0
2018-Jan-01 01:30N 30°08' W 093°19'0 0.0
2018-Jan-01 00:30N 30°08' W 093°19'0 0.0
2017-Dec-31 21:00N 30°08' W 093°19'0 0.0
2017-Dec-31 20:30N 30°08' W 093°19'0 0.0
2017-Dec-31 20:00N 30°08' W 093°19'0 0.0
2017-Dec-31 19:30N 30°08' W 093°19'0 0.0
2017-Dec-31 19:00N 30°08' W 093°19'0 0.2
2017-Dec-31 18:30N 30°08' W 093°19'0 0.6
2017-Dec-31 18:00N 30°08' W 093°20'0 0.0
2017-Dec-31 17:30N 30°08' W 093°20'0 0.0
2017-Dec-31 17:01N 30°08' W 093°20'0 0.0
2017-Dec-31 16:30N 30°08' W 093°20'0 0.0
2017-Dec-31 16:00N 30°08' W 093°20'0 0.0
2017-Dec-31 15:30N 30°08' W 093°20'0 0.0
2017-Dec-31 15:00N 30°08' W 093°20'0 0.0
2017-Dec-31 14:31N 30°08' W 093°20'0 0.0
2017-Dec-31 14:00N 30°08' W 093°20'1 3.0
2017-Dec-31 13:30N 30°07' W 093°20'2 4.7
2017-Dec-31 13:00N 30°04' W 093°21'0 0.7
2017-Dec-31 12:30N 30°04' W 093°21'0 0.0
2017-Dec-31 12:00N 30°04' W 093°21'0 0.0
2017-Dec-31 11:30N 30°04' W 093°21'0 0.0
2017-Dec-31 11:00N 30°04' W 093°21'0 0.0
2017-Dec-31 10:30N 30°04' W 093°21'0 0.0
2017-Dec-31 10:00N 30°04' W 093°21'0 0.0
2017-Dec-31 09:30N 30°04' W 093°21'0 0.0
2017-Dec-31 09:00N 30°04' W 093°21'0 0.0
2017-Dec-31 08:30N 30°04' W 093°21'0 0.0
2017-Dec-31 08:00N 30°04' W 093°21'0 0.0
2017-Dec-31 07:30N 30°04' W 093°21'0 0.0
2017-Dec-31 07:00N 30°04' W 093°21'0 0.0
2017-Dec-31 06:31N 30°04' W 093°21'0 0.0
2017-Dec-31 06:00N 30°04' W 093°21'0 0.0
2017-Dec-31 05:30N 30°04' W 093°21'0 0.0
2017-Dec-31 05:00N 30°04' W 093°21'0 0.0
2017-Dec-31 04:31N 30°04' W 093°21'0 0.0
2017-Dec-31 04:00N 30°04' W 093°21'0 0.0
2017-Dec-31 03:31N 30°04' W 093°21'0 0.0
2017-Dec-31 03:00N 30°04' W 093°21'0 0.0
2017-Dec-31 02:30N 30°04' W 093°21'0 0.0
2017-Dec-31 02:00N 30°04' W 093°21'0 0.0
2017-Dec-31 01:30N 30°04' W 093°21'0 0.0
2017-Dec-31 01:00N 30°04' W 093°21'0 0.0
2017-Dec-31 00:30N 30°04' W 093°21'0 0.0
2017-Dec-31 00:00N 30°04' W 093°21'0 0.0
2017-Dec-30 23:30N 30°04' W 093°21'0 0.0
2017-Dec-30 23:01N 30°04' W 093°21'0 0.0
2017-Dec-30 22:31N 30°04' W 093°21'0 0.0
2017-Dec-30 22:00N 30°04' W 093°21'0 0.0
2017-Dec-30 21:31N 30°04' W 093°21'0 0.0
2017-Dec-30 21:00N 30°04' W 093°21'0 0.0
2017-Dec-30 20:30N 30°04' W 093°21'0 0.0
2017-Dec-30 20:01N 30°04' W 093°21'0 0.0
2017-Dec-30 19:30N 30°04' W 093°21'0 0.0
2017-Dec-30 19:00N 30°04' W 093°21'0 0.0
2017-Dec-30 18:30N 30°04' W 093°21'0 0.0
2017-Dec-30 18:00N 30°04' W 093°21'0 0.0
2017-Dec-30 17:30N 30°04' W 093°21'0 0.0
2017-Dec-30 17:00N 30°04' W 093°21'0 0.0
2017-Dec-30 16:30N 30°04' W 093°21'0 0.0
2017-Dec-30 16:00N 30°04' W 093°21'0 0.0
2017-Dec-30 15:31N 30°04' W 093°21'0 0.0
2017-Dec-30 15:01N 30°04' W 093°21'0 0.0
2017-Dec-30 14:30N 30°04' W 093°21'0 0.0
2017-Dec-30 14:01N 30°04' W 093°21'0 0.0
2017-Dec-30 13:30N 30°04' W 093°21'0 0.0
2017-Dec-30 13:01N 30°04' W 093°21'0 0.0
2017-Dec-30 12:30N 30°04' W 093°21'0 0.0
2017-Dec-30 12:00N 30°04' W 093°21'0 0.0
2017-Dec-30 11:30N 30°04' W 093°21'0 0.0
2017-Dec-30 11:01N 30°04' W 093°21'0 0.0
2017-Dec-30 10:30N 30°04' W 093°21'0 0.0
2017-Dec-30 10:00N 30°04' W 093°21'0 0.0
2017-Dec-30 09:30N 30°04' W 093°21'0 0.0
2017-Dec-30 09:00N 30°04' W 093°21'0 0.0
2017-Dec-30 08:30N 30°04' W 093°21'0 0.0
2017-Dec-30 08:00N 30°04' W 093°21'0 0.0
2017-Dec-30 07:30N 30°04' W 093°21'0 0.0
2017-Dec-30 07:00N 30°04' W 093°21'1 1.0
2017-Dec-30 06:30N 30°04' W 093°21'2 4.3
2017-Dec-30 06:01N 30°05' W 093°20'1 2.0
2017-Dec-30 05:30N 30°06' W 093°19'0 0.0
2017-Dec-30 05:00N 30°06' W 093°19'0 0.0
2017-Dec-30 04:30N 30°06' W 093°19'0 0.0
2017-Dec-30 04:00N 30°06' W 093°19'0 0.2
2017-Dec-30 03:31N 30°06' W 093°19'3 5.1
2017-Dec-30 03:00N 30°04' W 093°21'2 3.5
2017-Dec-30 02:30N 30°04' W 093°23'2 3.1
2017-Dec-30 02:01N 30°04' W 093°25'2 4.2
2017-Dec-30 01:31N 30°04' W 093°27'3 5.6
2017-Dec-30 01:00N 30°04' W 093°30'  
Track history (hours):
 
Tides and Currents Weather Stations Pressure Air Temp Water Temp Dewpoint Dewpoint Depression Visibility Wind Speed Wind Dir Waves Ship Positions

Capt. Gary E. Moss

Owner: Blessey Enterprises, Inc., Harahan, LA. More information available from US FCC via Universal Licensing System and Coast Guard Vessel Documentation Center.

Last reported at 2018-Jan-04 23:13 UTC. Time now 2018-Jan-22 14:03 UTC.
Position N 29°50' W 091°58'.
Warning: this ship's position is 17 days out of date.

Length 26 m.

Type: Towing. MMSI: 367647650.

Date/timePositionNaut miles runAvg speedWind from/ knotsBaromVisibWave heightAir tempDewpointWater temp
2018-Jan-04 23:13N 29°50' W 091°58'1 4.5
2018-Jan-04 23:00N 29°50' W 091°60'2 4.5
2018-Jan-04 22:30N 29°49' W 092°02'2 4.6
2018-Jan-04 22:00N 29°48' W 092°04'2 4.7
2018-Jan-04 21:30N 29°47' W 092°07'2 4.9
2018-Jan-04 21:00N 29°47' W 092°10'2 3.7
2018-Jan-04 20:30N 29°47' W 092°12'2 4.4
2018-Jan-04 20:00N 29°48' W 092°14'2 4.7
2018-Jan-04 19:30N 29°49' W 092°17'2 4.6
2018-Jan-04 19:00N 29°50' W 092°19'39 4.0
2018-Jan-04 09:14N 29°56' W 093°03'1 4.0
2018-Jan-04 09:00N 29°56' W 093°04'2 3.8
2018-Jan-04 08:30N 29°56' W 093°06'2 3.9
2018-Jan-04 08:00N 29°56' W 093°08'2 3.7
2018-Jan-04 07:30N 29°57' W 093°10'2 4.1
2018-Jan-04 07:00N 29°58' W 093°12'2 4.1
2018-Jan-04 06:30N 29°60' W 093°13'2 3.7
2018-Jan-04 06:00N 30°02' W 093°14'2 3.8
2018-Jan-04 05:30N 30°03' W 093°16'2 4.0
2018-Jan-04 05:00N 30°05' W 093°17'1 2.4
2018-Jan-04 04:30N 30°05' W 093°18'1 2.0
2018-Jan-04 04:00N 30°06' W 093°19'0 0.0
2018-Jan-04 03:30N 30°06' W 093°19'0 0.0
2018-Jan-04 03:00N 30°06' W 093°19'0 0.1
2018-Jan-04 02:30N 30°06' W 093°19'0 0.2
2018-Jan-04 02:00N 30°06' W 093°19'0 0.0
2018-Jan-04 01:30N 30°06' W 093°19'0 0.2
2018-Jan-04 01:00N 30°06' W 093°19'1 2.6
2018-Jan-04 00:30N 30°05' W 093°20'0 0.3
2018-Jan-04 00:00N 30°05' W 093°20'0 0.0
2018-Jan-03 23:30N 30°05' W 093°20'0 0.0
2018-Jan-03 23:00N 30°05' W 093°20'0 0.2
2018-Jan-03 22:30N 30°05' W 093°20'1 2.7
2018-Jan-03 22:00N 30°04' W 093°21'0 0.0
2018-Jan-03 21:30N 30°04' W 093°21'0 0.0
2018-Jan-03 21:00N 30°04' W 093°21'0 0.0
2018-Jan-03 20:30N 30°04' W 093°21'0 0.0
2018-Jan-03 20:00N 30°04' W 093°21'0 0.0
2018-Jan-03 19:30N 30°04' W 093°21'0 0.0
2018-Jan-03 19:00N 30°04' W 093°21'0 0.0
2018-Jan-03 18:30N 30°04' W 093°21'0 0.0
2018-Jan-03 18:01N 30°04' W 093°21'2 3.0
2018-Jan-03 17:30N 30°05' W 093°20'0 0.0
2018-Jan-03 17:00N 30°05' W 093°20'0 0.0
2018-Jan-03 16:30N 30°05' W 093°20'0 0.0
2018-Jan-03 16:00N 30°05' W 093°20'0 0.0
2018-Jan-03 15:30N 30°05' W 093°20'0 0.0
2018-Jan-03 15:00N 30°05' W 093°20'0 0.0
2018-Jan-03 14:30N 30°05' W 093°20'0 0.0
2018-Jan-03 14:00N 30°05' W 093°20'0 0.0
2018-Jan-03 13:30N 30°05' W 093°20'0 0.0
2018-Jan-03 13:00N 30°05' W 093°20'0 0.0
2018-Jan-03 12:30N 30°05' W 093°20'0 0.0
2018-Jan-03 12:00N 30°05' W 093°20'0 0.0
2018-Jan-03 11:30N 30°05' W 093°20'0 0.0
2018-Jan-03 11:00N 30°05' W 093°20'0 0.0
2018-Jan-03 10:30N 30°05' W 093°20'0 0.0
2018-Jan-03 10:00N 30°05' W 093°20'0 0.0
2018-Jan-03 09:30N 30°05' W 093°20'0 0.0
2018-Jan-03 09:00N 30°05' W 093°20'0 0.0
2018-Jan-03 08:30N 30°05' W 093°20'0 0.0
2018-Jan-03 08:00N 30°05' W 093°20'0 0.0
2018-Jan-03 07:30N 30°05' W 093°20'0 0.0
2018-Jan-03 07:00N 30°05' W 093°20'0 0.0
2018-Jan-03 06:31N 30°05' W 093°20'0 0.0
2018-Jan-03 06:00N 30°05' W 093°20'0 0.0
2018-Jan-03 05:30N 30°05' W 093°20'0 0.0
2018-Jan-03 05:00N 30°05' W 093°20'0 0.0
2018-Jan-03 04:30N 30°05' W 093°20'0 0.0
2018-Jan-03 04:00N 30°05' W 093°20'0 0.0
2018-Jan-03 03:30N 30°05' W 093°20'0 0.0
2018-Jan-03 03:00N 30°05' W 093°20'0 0.0
2018-Jan-03 02:31N 30°05' W 093°20'0 0.0
2018-Jan-03 02:01N 30°05' W 093°20'0 0.0
2018-Jan-03 01:30N 30°05' W 093°20'0 0.0
2018-Jan-03 01:00N 30°05' W 093°20'0 0.0
2018-Jan-03 00:30N 30°05' W 093°20'0 0.0
2018-Jan-03 00:00N 30°05' W 093°20'0 0.0
2018-Jan-02 23:30N 30°05' W 093°20'0 0.0
2018-Jan-02 23:00N 30°05' W 093°20'0 0.0
2018-Jan-02 22:30N 30°05' W 093°20'0 0.0
2018-Jan-02 22:01N 30°05' W 093°20'0 0.0
2018-Jan-02 21:30N 30°05' W 093°20'0 0.0
2018-Jan-02 21:01N 30°05' W 093°20'0 0.0
2018-Jan-02 20:30N 30°05' W 093°20'0 0.0
2018-Jan-02 20:00N 30°05' W 093°20'0 0.0
2018-Jan-02 19:30N 30°05' W 093°20'0 0.0
2018-Jan-02 19:00N 30°05' W 093°20'0 0.0
2018-Jan-02 18:30N 30°05' W 093°20'0 0.0
2018-Jan-02 18:00N 30°05' W 093°20'0 0.0
2018-Jan-02 17:30N 30°05' W 093°20'0 0.0
2018-Jan-02 17:00N 30°05' W 093°20'0 0.0
2018-Jan-02 16:31N 30°05' W 093°20'0 0.0
2018-Jan-02 16:00N 30°05' W 093°20'0 0.0
2018-Jan-02 15:30N 30°05' W 093°20'0 0.0
2018-Jan-02 15:00N 30°05' W 093°20'0 0.0
2018-Jan-02 14:30N 30°05' W 093°20'0 0.0
2018-Jan-02 14:00N 30°05' W 093°20'0 0.0
2018-Jan-02 13:30N 30°05' W 093°20'0 0.0
2018-Jan-02 13:00N 30°05' W 093°20'0 0.0
2018-Jan-02 12:30N 30°05' W 093°20'0 0.0
2018-Jan-02 12:01N 30°05' W 093°20'0 0.0
2018-Jan-02 11:31N 30°05' W 093°20'0 0.0
2018-Jan-02 11:00N 30°05' W 093°20'0 0.0
2018-Jan-02 10:30N 30°05' W 093°20'0 0.0
2018-Jan-02 10:00N 30°05' W 093°20'0 0.0
2018-Jan-02 09:30N 30°05' W 093°20'0 0.0
2018-Jan-02 08:31N 30°05' W 093°20'0 0.0
2018-Jan-02 08:00N 30°05' W 093°20'0 0.0
2018-Jan-02 07:30N 30°05' W 093°20'0 0.0
2018-Jan-02 07:00N 30°05' W 093°20'0 0.0
2018-Jan-02 06:30N 30°05' W 093°20'0 0.0
2018-Jan-02 06:00N 30°05' W 093°20'0 0.0
2018-Jan-02 05:30N 30°05' W 093°20'0 0.0
2018-Jan-02 04:30N 30°05' W 093°20'0 0.0
2018-Jan-02 04:00N 30°05' W 093°20'0 0.0
2018-Jan-02 03:30N 30°05' W 093°20'0 0.0
2018-Jan-02 03:00N 30°05' W 093°20'0 0.0
2018-Jan-02 02:30N 30°05' W 093°20'0 0.0
2018-Jan-02 02:00N 30°05' W 093°20'0 0.0
2018-Jan-02 01:30N 30°05' W 093°20'0 0.0
2018-Jan-02 01:00N 30°05' W 093°20'0 0.0
2018-Jan-02 00:30N 30°05' W 093°20'0 0.0
2018-Jan-02 00:00N 30°05' W 093°20'0 0.0
2018-Jan-01 23:30N 30°05' W 093°20'0 0.1
2018-Jan-01 23:00N 30°05' W 093°20'0 0.0
2018-Jan-01 22:30N 30°05' W 093°20'0 0.6
2018-Jan-01 22:00N 30°05' W 093°20'2 3.2
2018-Jan-01 21:30N 30°07' W 093°20'2 3.2
2018-Jan-01 21:00N 30°08' W 093°19'0 0.5
2018-Jan-01 20:30N 30°08' W 093°19'0 0.0
2018-Jan-01 20:00N 30°08' W 093°19'0 0.0
2018-Jan-01 19:30N 30°08' W 093°19'0 0.0
2018-Jan-01 19:00N 30°08' W 093°19'0 0.0
2018-Jan-01 18:30N 30°08' W 093°19'0 0.0
2018-Jan-01 18:00N 30°08' W 093°19'0 0.0
2018-Jan-01 17:31N 30°08' W 093°19'0 0.0
2018-Jan-01 15:00N 30°08' W 093°19'0 0.0
2018-Jan-01 14:30N 30°08' W 093°19'0 0.0
2018-Jan-01 14:00N 30°08' W 093°19'0 0.0
2018-Jan-01 13:30N 30°08' W 093°19'0 0.0
2018-Jan-01 13:00N 30°08' W 093°19'0 0.0
2018-Jan-01 12:01N 30°08' W 093°19'0 0.0
2018-Jan-01 11:30N 30°08' W 093°19'0 0.0
2018-Jan-01 11:00N 30°08' W 093°19'0 0.0
2018-Jan-01 10:31N 30°08' W 093°19'0 0.0
2018-Jan-01 10:01N 30°08' W 093°19'0 0.0
2018-Jan-01 09:30N 30°08' W 093°19'0 0.0
2018-Jan-01 08:31N 30°08' W 093°19'0 0.0
2018-Jan-01 08:00N 30°08' W 093°19'0 0.0
2018-Jan-01 07:30N 30°08' W 093°19'0 0.0
2018-Jan-01 07:00N 30°08' W 093°19'0 0.0
2018-Jan-01 06:00N 30°08' W 093°19'0 0.0
2018-Jan-01 05:30N 30°08' W 093°19'0 0.0
2018-Jan-01 05:01N 30°08' W 093°19'0 0.0
2018-Jan-01 04:00N 30°08' W 093°19'0 0.0
2018-Jan-01 03:30N 30°08' W 093°19'0 0.0
2018-Jan-01 03:00N 30°08' W 093°19'0 0.0
2018-Jan-01 02:30N 30°08' W 093°19'0 0.0
2018-Jan-01 02:00N 30°08' W 093°19'0 0.0
2018-Jan-01 01:30N 30°08' W 093°19'0 0.0
2018-Jan-01 00:30N 30°08' W 093°19'0 0.0
2017-Dec-31 21:00N 30°08' W 093°19'0 0.0
2017-Dec-31 20:30N 30°08' W 093°19'0 0.0
2017-Dec-31 20:00N 30°08' W 093°19'0 0.0
2017-Dec-31 19:30N 30°08' W 093°19'0 0.0
2017-Dec-31 19:00N 30°08' W 093°19'0 0.2
2017-Dec-31 18:30N 30°08' W 093°19'0 0.6
2017-Dec-31 18:00N 30°08' W 093°20'0 0.0
2017-Dec-31 17:30N 30°08' W 093°20'0 0.0
2017-Dec-31 17:01N 30°08' W 093°20'0 0.0
2017-Dec-31 16:30N 30°08' W 093°20'0 0.0
2017-Dec-31 16:00N 30°08' W 093°20'0 0.0
2017-Dec-31 15:30N 30°08' W 093°20'0 0.0
2017-Dec-31 15:00N 30°08' W 093°20'0 0.0
2017-Dec-31 14:31N 30°08' W 093°20'0 0.0
2017-Dec-31 14:00N 30°08' W 093°20'1 3.0
2017-Dec-31 13:30N 30°07' W 093°20'2 4.7
2017-Dec-31 13:00N 30°04' W 093°21'0 0.7
2017-Dec-31 12:30N 30°04' W 093°21'0 0.0
2017-Dec-31 12:00N 30°04' W 093°21'0 0.0
2017-Dec-31 11:30N 30°04' W 093°21'0 0.0
2017-Dec-31 11:00N 30°04' W 093°21'0 0.0
2017-Dec-31 10:30N 30°04' W 093°21'0 0.0
2017-Dec-31 10:00N 30°04' W 093°21'0 0.0
2017-Dec-31 09:30N 30°04' W 093°21'0 0.0
2017-Dec-31 09:00N 30°04' W 093°21'0 0.0
2017-Dec-31 08:30N 30°04' W 093°21'0 0.0
2017-Dec-31 08:00N 30°04' W 093°21'0 0.0
2017-Dec-31 07:30N 30°04' W 093°21'0 0.0
2017-Dec-31 07:00N 30°04' W 093°21'0 0.0
2017-Dec-31 06:31N 30°04' W 093°21'0 0.0
2017-Dec-31 06:00N 30°04' W 093°21'0 0.0
2017-Dec-31 05:30N 30°04' W 093°21'0 0.0
2017-Dec-31 05:00N 30°04' W 093°21'0 0.0
2017-Dec-31 04:31N 30°04' W 093°21'0 0.0
2017-Dec-31 04:00N 30°04' W 093°21'0 0.0
2017-Dec-31 03:31N 30°04' W 093°21'0 0.0
2017-Dec-31 03:00N 30°04' W 093°21'0 0.0
2017-Dec-31 02:30N 30°04' W 093°21'0 0.0
2017-Dec-31 02:00N 30°04' W 093°21'0 0.0
2017-Dec-31 01:30N 30°04' W 093°21'0 0.0
2017-Dec-31 01:00N 30°04' W 093°21'0 0.0
2017-Dec-31 00:30N 30°04' W 093°21'0 0.0
2017-Dec-31 00:00N 30°04' W 093°21'0 0.0
2017-Dec-30 23:30N 30°04' W 093°21'0 0.0
2017-Dec-30 23:01N 30°04' W 093°21'0 0.0
2017-Dec-30 22:31N 30°04' W 093°21'0 0.0
2017-Dec-30 22:00N 30°04' W 093°21'0 0.0
2017-Dec-30 21:31N 30°04' W 093°21'0 0.0
2017-Dec-30 21:00N 30°04' W 093°21'0 0.0
2017-Dec-30 20:30N 30°04' W 093°21'0 0.0
2017-Dec-30 20:01N 30°04' W 093°21'0 0.0
2017-Dec-30 19:30N 30°04' W 093°21'0 0.0
2017-Dec-30 19:00N 30°04' W 093°21'0 0.0
2017-Dec-30 18:30N 30°04' W 093°21'0 0.0
2017-Dec-30 18:00N 30°04' W 093°21'0 0.0
2017-Dec-30 17:30N 30°04' W 093°21'0 0.0
2017-Dec-30 17:00N 30°04' W 093°21'0 0.0
2017-Dec-30 16:30N 30°04' W 093°21'0 0.0
2017-Dec-30 16:00N 30°04' W 093°21'0 0.0
2017-Dec-30 15:31N 30°04' W 093°21'0 0.0
2017-Dec-30 15:01N 30°04' W 093°21'0 0.0
2017-Dec-30 14:30N 30°04' W 093°21'0 0.0
2017-Dec-30 14:01N 30°04' W 093°21'0 0.0
2017-Dec-30 13:30N 30°04' W 093°21'0 0.0
2017-Dec-30 13:01N 30°04' W 093°21'0 0.0
2017-Dec-30 12:30N 30°04' W 093°21'0 0.0
2017-Dec-30 12:00N 30°04' W 093°21'0 0.0
2017-Dec-30 11:30N 30°04' W 093°21'0 0.0
2017-Dec-30 11:01N 30°04' W 093°21'0 0.0
2017-Dec-30 10:30N 30°04' W 093°21'0 0.0
2017-Dec-30 10:00N 30°04' W 093°21'0 0.0
2017-Dec-30 09:30N 30°04' W 093°21'0 0.0
2017-Dec-30 09:00N 30°04' W 093°21'0 0.0
2017-Dec-30 08:30N 30°04' W 093°21'0 0.0
2017-Dec-30 08:00N 30°04' W 093°21'0 0.0
2017-Dec-30 07:30N 30°04' W 093°21'0 0.0
2017-Dec-30 07:00N 30°04' W 093°21'1 1.0
2017-Dec-30 06:30N 30°04' W 093°21'2 4.3
2017-Dec-30 06:01N 30°05' W 093°20'1 2.0
2017-Dec-30 05:30N 30°06' W 093°19'0 0.0
2017-Dec-30 05:00N 30°06' W 093°19'0 0.0
2017-Dec-30 04:30N 30°06' W 093°19'0 0.0
2017-Dec-30 04:00N 30°06' W 093°19'0 0.2
2017-Dec-30 03:31N 30°06' W 093°19'3 5.1
2017-Dec-30 03:00N 30°04' W 093°21'2 3.5
2017-Dec-30 02:30N 30°04' W 093°23'2 3.1
2017-Dec-30 02:01N 30°04' W 093°25'2 4.2
2017-Dec-30 01:31N 30°04' W 093°27'3 5.6
2017-Dec-30 01:00N 30°04' W 093°30'  

Dump ship's entire track history